KMEI/MEI METAR and TAF weather

Enter ICAO airport designator
Station Type Date Time Source
KMEI METAR 2019/12/12 16:58 UTC NOAA

KMEI 121658Z 12004KT 10SM OVC019 09/00 A3038 RMK AO2 SLP288 I1000 T00890000


Station Type Date Time Source
KMEI Decoded METAR 2019/12/12 16:58 UTC NOAA

MERIDIAN KEY FIELD, MS, United States (KMEI) 32-20N 088-45W 89M
Dec 12, 2019 - 11:58 AM EST / 2019.12.12 1658 UTC
Wind: from the ESE (120 degrees) at 5 MPH (4 KT):0
Visibility: 10 mile(s):0
Sky conditions: overcast
Temperature: 48.0 F (8.9 C)
Dew Point: 32.0 F (0.0 C)
Relative Humidity: 53%
Pressure (altimeter): 30.38 in. Hg (1028 hPa)
ob: KMEI 121658Z 12004KT 10SM OVC019 09/00 A3038 RMK AO2 SLP288 I1000 T00890000
cycle: 17

Station Type Date Time Source
KMEI TAF 2019/12/12 12:54 UTC NOAA

TAF KMEI 121153Z 1212/1312 07008KT P6SM SKC
FM121600 11010KT P6SM FEW025 OVC035
FM130000 13007KT P6SM BKN015 OVC025
FM130800 13003KT 5SM -RA BR OVC007

Example: see airport list